createdAt,value
2023-02-14T00:08:38.062Z,8.70
2023-02-14T00:23:40.406Z,8.50
2023-02-14T00:38:42.848Z,8.40
2023-02-14T00:53:46.890Z,8.20
2023-02-14T01:08:49.327Z,8.20
2023-02-14T01:23:53.824Z,8.30
2023-02-14T01:39:07.966Z,7.80
2023-02-14T01:54:11.495Z,7.60
2023-02-14T02:09:28.832Z,7.60
2023-02-14T02:24:57.232Z,7.00
2023-02-14T02:40:27.202Z,7.20
2023-02-14T02:56:01.431Z,6.90
2023-02-14T03:11:06.261Z,7.10
2023-02-14T03:26:19.847Z,7.10
2023-02-14T03:41:28.551Z,6.90
2023-02-14T03:56:51.398Z,6.80
2023-02-14T04:11:53.812Z,6.70
2023-02-14T04:27:12.197Z,6.60
2023-02-14T04:42:15.211Z,6.10
2023-02-14T04:57:17.616Z,6.00
2023-02-14T05:12:20.349Z,6.40
2023-02-14T05:27:22.778Z,6.40
2023-02-14T05:42:25.503Z,6.30
2023-02-14T05:57:27.875Z,6.30
2023-02-14T06:12:30.341Z,6.40
2023-02-14T06:27:33.317Z,5.80
2023-02-14T06:42:35.753Z,5.30
2023-02-14T06:57:39.209Z,3.40
2023-02-14T07:12:41.902Z,4.30
2023-02-14T07:27:44.782Z,4.30
2023-02-14T07:42:57.910Z,4.30
2023-02-14T07:58:00.834Z,4.70
2023-02-14T08:13:03.612Z,5.40
2023-02-14T08:28:06.779Z,5.30
2023-02-14T08:43:09.786Z,4.50
2023-02-14T08:58:12.307Z,3.80
2023-02-14T09:13:15.227Z,4.90
2023-02-14T09:28:18.926Z,4.80
2023-02-14T09:43:34.422Z,5.20
2023-02-14T09:58:47.381Z,5.80
2023-02-14T10:13:54.784Z,6.10
2023-02-14T10:28:57.477Z,6.40
2023-02-14T10:44:38.569Z,7.10
2023-02-14T10:59:48.367Z,7.60
2023-02-14T11:15:07.396Z,7.60
2023-02-14T11:30:22.210Z,8.40
2023-02-14T11:45:32.383Z,8.80
2023-02-14T12:00:35.183Z,9.40
2023-02-14T12:15:54.861Z,10.30
2023-02-14T12:30:57.711Z,10.40
2023-02-14T12:46:17.309Z,10.90
2023-02-14T13:02:03.971Z,11.10
2023-02-14T13:17:15.090Z,11.50
2023-02-14T13:32:21.612Z,11.80
2023-02-14T13:47:26.219Z,12.10
2023-02-14T14:02:30.238Z,12.20
2023-02-14T14:17:34.301Z,12.30
2023-02-14T14:32:38.743Z,12.50
2023-02-14T14:47:44.367Z,12.40
2023-02-14T15:03:05.909Z,12.30
2023-02-14T15:18:11.401Z,12.40
2023-02-14T15:33:14.085Z,12.40
2023-02-14T15:48:20.739Z,12.30
2023-02-14T16:03:26.270Z,11.90
2023-02-14T16:18:49.559Z,11.90
2023-02-14T16:33:52.071Z,12.30
2023-02-14T16:48:55.065Z,11.90
2023-02-14T17:03:57.614Z,11.40
2023-02-14T17:19:02.791Z,11.40
2023-02-14T17:34:05.164Z,11.40
2023-02-14T17:49:09.347Z,10.90
2023-02-14T18:04:12.194Z,11.10
2023-02-14T18:19:15.919Z,11.20
2023-02-14T18:34:18.422Z,10.90
2023-02-14T18:49:21.135Z,10.90
2023-02-14T19:04:23.506Z,10.90
2023-02-14T19:19:26.006Z,9.80
2023-02-14T19:34:30.762Z,9.30
2023-02-14T19:49:36.217Z,8.60
2023-02-14T20:04:38.887Z,9.30
2023-02-14T20:19:41.581Z,9.50
2023-02-14T20:34:45.128Z,9.60
2023-02-14T20:49:47.781Z,9.50
2023-02-14T21:04:50.167Z,9.20
2023-02-14T21:19:52.626Z,8.10
2023-02-14T21:34:56.371Z,8.10
2023-02-14T21:50:17.333Z,7.90
2023-02-14T22:05:19.668Z,8.00
2023-02-14T22:20:21.970Z,7.90
2023-02-14T22:35:24.320Z,8.40
2023-02-14T22:50:26.785Z,6.60
2023-02-14T23:05:29.185Z,6.60
2023-02-14T23:20:50.829Z,6.70
2023-02-14T23:35:54.243Z,6.10
2023-02-14T23:51:00.836Z,6.30
